createdAt,value
2022-07-27T00:00:14.844Z,9.35
2022-07-27T00:02:16.508Z,8.95
2022-07-27T00:04:19.068Z,9.70
2022-07-27T00:08:24.193Z,8.95
2022-07-27T00:10:25.850Z,9.07
2022-07-27T00:12:27.507Z,9.60
2022-07-27T00:14:29.209Z,9.02
2022-07-27T00:16:31.112Z,9.10
2022-07-27T00:18:32.949Z,9.15
2022-07-27T00:20:34.666Z,9.38
2022-07-27T00:22:36.436Z,9.98
2022-07-27T00:24:38.055Z,10.40
2022-07-27T00:26:39.831Z,9.98
2022-07-27T00:28:41.490Z,9.20
2022-07-27T00:30:43.263Z,9.30
2022-07-27T00:32:45.001Z,9.52
2022-07-27T00:34:47.805Z,8.90
2022-07-27T00:36:49.460Z,9.52
2022-07-27T00:38:51.054Z,9.13
2022-07-27T00:40:53.853Z,9.63
2022-07-27T00:42:55.479Z,8.90
2022-07-27T00:44:57.936Z,9.30
2022-07-27T00:46:59.933Z,8.93
2022-07-27T00:49:01.763Z,9.82
2022-07-27T00:51:03.537Z,9.23
2022-07-27T00:53:05.246Z,9.93
2022-07-27T00:55:07.310Z,9.20
2022-07-27T00:57:13.121Z,10.05
2022-07-27T00:59:15.363Z,9.25
2022-07-27T01:01:19.167Z,10.13
2022-07-27T01:03:20.944Z,8.93
2022-07-27T01:05:36.699Z,9.05
2022-07-27T01:07:40.420Z,9.82
2022-07-27T01:09:57.728Z,9.60
2022-07-27T01:12:00.037Z,9.88
2022-07-27T01:14:01.695Z,10.55
2022-07-27T01:16:06.075Z,9.45
2022-07-27T01:18:13.090Z,9.40
2022-07-27T01:20:14.851Z,9.38
2022-07-27T01:22:16.658Z,10.10
2022-07-27T01:24:18.690Z,10.50
2022-07-27T01:26:20.558Z,11.23
2022-07-27T01:28:22.264Z,10.88
2022-07-27T01:30:26.969Z,10.32
2022-07-27T01:32:28.701Z,9.90
2022-07-27T01:34:33.498Z,10.77
2022-07-27T01:36:35.171Z,10.38
2022-07-27T01:38:36.962Z,10.82
2022-07-27T01:40:39.837Z,10.48
2022-07-27T01:42:41.759Z,10.70
2022-07-27T01:44:43.493Z,10.98
2022-07-27T01:46:45.515Z,10.60
2022-07-27T01:48:47.528Z,11.10
2022-07-27T01:50:51.099Z,10.23
2022-07-27T01:52:53.000Z,10.77
2022-07-27T01:54:54.689Z,10.18
2022-07-27T01:56:56.403Z,9.90
2022-07-27T01:58:59.105Z,8.32
2022-07-27T02:01:00.724Z,8.90
2022-07-27T02:03:03.307Z,7.80
2022-07-27T02:05:05.702Z,7.70
2022-07-27T02:07:07.408Z,7.07
2022-07-27T02:09:09.455Z,7.35
2022-07-27T02:11:30.087Z,6.80
2022-07-27T02:13:31.698Z,6.43
2022-07-27T02:15:43.045Z,6.80
2022-07-27T02:17:45.681Z,6.45
2022-07-27T02:19:47.306Z,6.05
2022-07-27T02:21:48.925Z,6.70
2022-07-27T02:23:50.631Z,6.28
2022-07-27T02:25:52.319Z,6.25
2022-07-27T02:27:53.953Z,6.35
2022-07-27T02:29:55.597Z,7.10
2022-07-27T02:31:57.394Z,6.43
2022-07-27T02:33:59.030Z,6.95
2022-07-27T02:36:00.692Z,7.28
2022-07-27T02:38:02.302Z,6.45
2022-07-27T02:40:04.419Z,6.78
2022-07-27T02:42:06.181Z,6.97
2022-07-27T02:44:07.819Z,6.78
2022-07-27T02:46:09.540Z,6.50
2022-07-27T02:48:11.275Z,6.68
2022-07-27T02:50:13.471Z,7.22
2022-07-27T02:52:15.079Z,6.88
2022-07-27T02:54:16.700Z,7.05
2022-07-27T02:56:18.313Z,7.28
2022-07-27T02:58:21.233Z,7.25
2022-07-27T03:00:22.858Z,6.70
2022-07-27T03:02:24.601Z,7.15
2022-07-27T03:04:27.002Z,7.05
2022-07-27T03:06:28.741Z,6.30
2022-07-27T03:08:30.357Z,6.68
2022-07-27T03:10:32.426Z,6.60
2022-07-27T03:12:34.165Z,6.55
2022-07-27T03:14:35.846Z,6.72
2022-07-27T03:16:37.509Z,6.70
2022-07-27T03:18:39.268Z,7.00
2022-07-27T03:20:41.000Z,7.13
2022-07-27T03:22:43.691Z,6.93
2022-07-27T03:24:45.444Z,7.10
2022-07-27T03:26:47.106Z,7.63
2022-07-27T03:28:48.753Z,7.15
2022-07-27T03:30:50.516Z,6.65
2022-07-27T03:32:52.189Z,6.93
2022-07-27T03:34:53.848Z,7.32
2022-07-27T03:36:55.482Z,7.00
2022-07-27T03:38:57.150Z,7.15
2022-07-27T03:40:58.894Z,7.05
2022-07-27T03:43:01.030Z,7.15
2022-07-27T03:45:03.010Z,7.05
2022-07-27T03:47:05.069Z,7.85
2022-07-27T03:49:14.528Z,7.15
2022-07-27T03:51:16.979Z,7.60
2022-07-27T03:53:19.098Z,7.30
2022-07-27T03:55:21.041Z,7.00
2022-07-27T03:57:23.238Z,7.97
2022-07-27T03:59:25.793Z,6.68
2022-07-27T04:01:29.209Z,7.30
2022-07-27T04:03:30.932Z,6.57
2022-07-27T04:05:32.567Z,6.93
2022-07-27T04:07:34.278Z,6.75
2022-07-27T04:09:37.581Z,6.35
2022-07-27T04:11:50.592Z,6.68
2022-07-27T04:13:52.582Z,6.38
2022-07-27T04:15:56.115Z,6.88
2022-07-27T04:17:58.046Z,7.25
2022-07-27T04:19:59.849Z,6.47
2022-07-27T04:22:01.527Z,6.68
2022-07-27T04:24:03.154Z,6.78
2022-07-27T04:26:04.871Z,6.78
2022-07-27T04:28:06.617Z,6.43
2022-07-27T04:30:09.786Z,5.57
2022-07-27T04:32:11.559Z,6.55
2022-07-27T04:34:13.270Z,6.38
2022-07-27T04:36:14.951Z,6.25
2022-07-27T04:38:16.578Z,6.45
2022-07-27T04:40:18.195Z,6.57
2022-07-27T04:42:19.865Z,6.45
2022-07-27T04:44:21.530Z,6.57
2022-07-27T04:46:23.210Z,6.75
2022-07-27T04:48:25.299Z,6.78
2022-07-27T04:50:27.121Z,6.88
2022-07-27T04:52:28.987Z,6.28
2022-07-27T04:54:30.712Z,6.85
2022-07-27T04:56:32.329Z,6.53
2022-07-27T04:58:33.971Z,6.40
2022-07-27T05:00:35.793Z,6.30
2022-07-27T05:02:41.169Z,6.22
2022-07-27T05:04:42.812Z,6.35
2022-07-27T05:06:44.522Z,6.50
2022-07-27T05:08:46.166Z,6.32
2022-07-27T05:10:48.108Z,6.55
2022-07-27T05:12:50.142Z,7.30
2022-07-27T05:14:51.865Z,6.35
2022-07-27T05:16:53.596Z,6.38
2022-07-27T05:18:55.325Z,6.35
2022-07-27T05:20:57.219Z,6.53
2022-07-27T05:22:58.909Z,6.57
2022-07-27T05:25:00.630Z,6.75
2022-07-27T05:27:02.333Z,6.35
2022-07-27T05:29:04.169Z,6.60
2022-07-27T05:31:05.783Z,6.80
2022-07-27T05:33:07.479Z,6.47
2022-07-27T05:35:09.684Z,7.88
2022-07-27T05:37:11.460Z,7.03
2022-07-27T05:39:14.005Z,6.20
2022-07-27T05:41:16.156Z,7.68
2022-07-27T05:43:17.802Z,7.35
2022-07-27T05:45:19.538Z,7.65
2022-07-27T05:47:21.394Z,7.63
2022-07-27T05:49:23.576Z,7.32
2022-07-27T05:51:25.410Z,7.03
2022-07-27T05:53:27.506Z,6.35
2022-07-27T05:55:29.262Z,6.82
2022-07-27T05:57:30.973Z,7.20
2022-07-27T05:59:32.820Z,6.80
2022-07-27T06:01:34.794Z,6.43
2022-07-27T06:03:38.051Z,7.13
2022-07-27T06:05:39.738Z,7.47
2022-07-27T06:07:59.763Z,7.28
2022-07-27T06:10:01.505Z,7.38
2022-07-27T06:12:03.459Z,7.22
2022-07-27T06:14:05.327Z,7.95
2022-07-27T06:16:07.060Z,7.18
2022-07-27T06:18:15.011Z,7.50
2022-07-27T06:20:16.807Z,7.78
2022-07-27T06:22:19.561Z,7.53
2022-07-27T06:24:21.269Z,7.10
2022-07-27T06:26:23.005Z,7.00
2022-07-27T06:28:24.730Z,6.40
2022-07-27T06:30:26.369Z,7.65
2022-07-27T06:32:28.113Z,8.05
2022-07-27T06:34:30.487Z,6.28
2022-07-27T06:36:34.755Z,6.90
2022-07-27T06:38:36.525Z,7.15
2022-07-27T06:40:38.370Z,7.57
2022-07-27T06:42:41.266Z,6.70
2022-07-27T06:44:42.922Z,6.70
2022-07-27T06:46:44.695Z,7.03
2022-07-27T06:48:46.525Z,7.13
2022-07-27T06:50:49.377Z,7.63
2022-07-27T06:52:51.088Z,6.70
2022-07-27T06:54:52.699Z,7.07
2022-07-27T06:56:54.389Z,7.78
2022-07-27T06:58:56.678Z,7.18
2022-07-27T07:00:59.703Z,7.05
2022-07-27T07:03:04.064Z,7.20
2022-07-27T07:05:06.289Z,7.38
2022-07-27T07:07:08.451Z,7.35
2022-07-27T07:09:11.080Z,6.97
2022-07-27T07:11:14.088Z,7.18
2022-07-27T07:13:15.913Z,7.25
2022-07-27T07:15:18.187Z,7.85
2022-07-27T07:17:19.996Z,8.00
2022-07-27T07:19:21.761Z,7.30
2022-07-27T07:21:23.665Z,8.02
2022-07-27T07:23:25.402Z,7.18
2022-07-27T07:25:28.066Z,9.60
2022-07-27T07:27:29.832Z,10.20
2022-07-27T07:29:31.494Z,6.85
2022-07-27T07:31:33.223Z,7.40
2022-07-27T07:33:34.969Z,6.95
2022-07-27T07:35:36.717Z,11.40
2022-07-27T07:37:38.767Z,8.50
2022-07-27T07:39:40.397Z,8.35
2022-07-27T07:41:42.105Z,6.63
2022-07-27T07:43:43.755Z,7.60
2022-07-27T07:45:51.581Z,7.18
2022-07-27T07:47:54.540Z,7.35
2022-07-27T07:49:56.295Z,6.72
2022-07-27T07:51:58.104Z,6.47
2022-07-27T07:53:59.796Z,6.60
2022-07-27T07:56:02.904Z,6.95
2022-07-27T07:58:04.700Z,6.75
2022-07-27T08:00:08.235Z,6.40
2022-07-27T08:02:09.921Z,6.45
2022-07-27T08:04:11.610Z,6.60
2022-07-27T08:06:13.263Z,7.00
2022-07-27T08:08:15.420Z,6.40
2022-07-27T08:10:18.966Z,7.00
2022-07-27T08:12:20.602Z,6.75
2022-07-27T08:14:23.370Z,6.88
2022-07-27T08:16:25.287Z,7.03
2022-07-27T08:18:27.182Z,6.40
2022-07-27T08:20:28.888Z,6.25
2022-07-27T08:22:30.685Z,6.03
2022-07-27T08:24:32.857Z,7.32
2022-07-27T08:26:34.758Z,6.53
2022-07-27T08:28:37.196Z,6.78
2022-07-27T08:30:39.074Z,6.63
2022-07-27T08:32:53.028Z,6.55
2022-07-27T08:34:55.367Z,5.70
2022-07-27T08:36:58.553Z,6.73
2022-07-27T08:41:06.926Z,6.35
2022-07-27T08:43:09.840Z,6.85
2022-07-27T08:47:19.662Z,5.97
2022-07-27T08:49:21.489Z,7.03
2022-07-27T08:51:24.810Z,6.68
2022-07-27T08:55:45.706Z,6.63
2022-07-27T08:57:47.379Z,6.05
2022-07-27T08:59:49.026Z,6.80
2022-07-27T09:01:50.748Z,7.28
2022-07-27T09:03:52.655Z,6.05
2022-07-27T09:05:56.349Z,6.07
2022-07-27T09:08:24.416Z,6.75
2022-07-27T09:10:33.781Z,6.68
2022-07-27T09:12:35.765Z,6.07
2022-07-27T09:14:39.777Z,6.80
2022-07-27T09:17:28.562Z,6.07
2022-07-27T09:19:09.012Z,6.93
2022-07-27T09:21:15.560Z,6.35
2022-07-27T09:23:27.249Z,6.50
2022-07-27T09:26:00.886Z,6.43
2022-07-27T09:27:58.178Z,7.88
2022-07-27T09:30:08.236Z,6.57
2022-07-27T09:32:16.176Z,6.53
2022-07-27T09:34:30.381Z,6.47
2022-07-27T09:36:32.070Z,9.90
2022-07-27T09:38:33.745Z,7.65
2022-07-27T09:40:36.392Z,7.50
2022-07-27T09:43:06.727Z,5.85
2022-07-27T09:45:00.133Z,7.00
2022-07-27T09:47:21.150Z,6.95
2022-07-27T09:49:28.320Z,6.85
2022-07-27T09:51:58.903Z,5.82
2022-07-27T09:53:53.863Z,6.35
2022-07-27T09:56:31.639Z,6.32
2022-07-27T09:58:43.590Z,6.88
2022-07-27T10:00:57.391Z,6.53
2022-07-27T10:02:59.531Z,6.35
2022-07-27T10:05:01.459Z,6.72
2022-07-27T10:07:06.306Z,6.90
2022-07-27T10:09:11.135Z,6.57
2022-07-27T10:11:13.812Z,6.38
2022-07-27T10:13:15.539Z,7.07
2022-07-27T10:15:17.189Z,7.00
2022-07-27T10:17:18.952Z,6.30
2022-07-27T10:19:20.563Z,7.35
2022-07-27T10:21:23.827Z,6.53
2022-07-27T10:23:27.497Z,6.60
2022-07-27T10:25:32.385Z,6.47
2022-07-27T10:27:39.532Z,6.63
2022-07-27T10:29:41.784Z,6.53
2022-07-27T10:31:55.363Z,7.13
2022-07-27T10:33:58.715Z,6.97
2022-07-27T10:36:03.185Z,5.95
2022-07-27T10:38:15.534Z,7.10
2022-07-27T10:40:35.322Z,7.30
2022-07-27T10:42:36.998Z,6.70
2022-07-27T10:44:52.434Z,7.50
2022-07-27T10:46:59.990Z,7.25
2022-07-27T10:49:18.148Z,6.75
2022-07-27T10:51:34.832Z,6.82
2022-07-27T10:54:09.798Z,7.28
2022-07-27T10:56:04.517Z,6.68
2022-07-27T10:58:15.110Z,7.10
2022-07-27T11:00:19.870Z,7.03
2022-07-27T11:02:41.129Z,8.05
2022-07-27T11:04:48.703Z,7.38
2022-07-27T11:07:23.574Z,7.38
2022-07-27T11:10:02.908Z,7.45
2022-07-27T11:11:39.729Z,6.82
2022-07-27T11:13:41.502Z,7.38
2022-07-27T11:15:59.738Z,7.28
2022-07-27T11:18:04.997Z,7.20
2022-07-27T11:20:07.628Z,7.82
2022-07-27T11:22:28.237Z,7.00
2022-07-27T11:24:30.606Z,7.10
2022-07-27T11:26:41.282Z,7.45
2022-07-27T11:28:43.589Z,7.60
2022-07-27T11:30:45.709Z,7.15
2022-07-27T11:32:47.420Z,7.20
2022-07-27T11:34:49.683Z,7.55
2022-07-27T11:36:51.421Z,6.65
2022-07-27T11:38:54.548Z,7.80
2022-07-27T11:41:03.060Z,7.20
2022-07-27T11:43:10.191Z,7.55
2022-07-27T11:45:31.458Z,6.95
2022-07-27T11:47:34.253Z,7.43
2022-07-27T11:49:36.032Z,7.35
2022-07-27T11:51:46.588Z,7.15
2022-07-27T11:53:48.485Z,6.93
2022-07-27T11:55:50.196Z,6.78
2022-07-27T11:57:51.868Z,7.47
2022-07-27T11:59:53.532Z,7.07
2022-07-27T12:02:03.893Z,7.03
2022-07-27T12:04:07.101Z,7.53
2022-07-27T12:06:09.159Z,7.18
2022-07-27T12:08:11.532Z,6.90
2022-07-27T12:10:13.515Z,6.60
2022-07-27T12:12:16.337Z,6.53
2022-07-27T12:14:18.432Z,6.70
2022-07-27T12:16:20.131Z,6.90
2022-07-27T12:18:21.878Z,6.75
2022-07-27T12:20:32.564Z,6.90
2022-07-27T12:22:38.025Z,6.68
2022-07-27T12:24:41.709Z,6.90
2022-07-27T12:26:43.441Z,7.20
2022-07-27T12:28:45.116Z,7.22
2022-07-27T12:30:49.384Z,7.72
2022-07-27T12:32:55.378Z,6.97
2022-07-27T12:34:57.540Z,7.20
2022-07-27T12:36:59.195Z,7.28
2022-07-27T12:39:00.939Z,6.82
2022-07-27T12:41:02.562Z,6.43
2022-07-27T12:43:05.961Z,6.53
2022-07-27T12:45:15.976Z,6.75
2022-07-27T12:47:39.773Z,6.15
2022-07-27T12:49:46.330Z,6.68
2022-07-27T12:51:48.277Z,6.75
2022-07-27T12:53:50.175Z,6.80
2022-07-27T12:55:55.598Z,5.90
2022-07-27T12:57:57.491Z,6.40
2022-07-27T12:59:59.251Z,6.40
2022-07-27T13:02:01.020Z,6.57
2022-07-27T13:04:02.729Z,6.45
2022-07-27T13:06:09.277Z,6.32
2022-07-27T13:08:16.815Z,6.80
2022-07-27T13:10:19.091Z,6.45
2022-07-27T13:12:22.178Z,6.57
2022-07-27T13:14:24.143Z,6.47
2022-07-27T13:16:25.924Z,6.93
2022-07-27T13:18:27.651Z,6.53
2022-07-27T13:20:29.777Z,6.30
2022-07-27T13:22:31.495Z,6.80
2022-07-27T13:24:33.295Z,6.20
2022-07-27T13:26:34.967Z,6.38
2022-07-27T13:28:36.659Z,6.13
2022-07-27T13:30:38.463Z,6.70
2022-07-27T13:32:41.148Z,6.30
2022-07-27T13:34:42.799Z,6.55
2022-07-27T13:36:44.580Z,5.80
2022-07-27T13:38:46.267Z,7.18
2022-07-27T13:40:48.204Z,7.25
2022-07-27T13:42:50.014Z,7.20
2022-07-27T13:45:05.679Z,7.65
2022-07-27T13:47:10.654Z,7.18
2022-07-27T13:49:12.849Z,8.02
2022-07-27T13:51:15.884Z,6.72
2022-07-27T13:53:17.851Z,6.30
2022-07-27T13:55:23.551Z,6.15
2022-07-27T13:57:27.925Z,6.70
2022-07-27T13:59:29.855Z,6.50
2022-07-27T14:01:33.037Z,6.50
2022-07-27T14:03:35.642Z,6.53
2022-07-27T14:05:37.709Z,6.20
2022-07-27T14:07:43.092Z,6.68
2022-07-27T14:12:04.993Z,6.45
2022-07-27T14:14:07.188Z,6.60
2022-07-27T14:16:09.055Z,6.20
2022-07-27T14:18:11.235Z,6.20
2022-07-27T14:20:13.214Z,6.50
2022-07-27T14:22:15.131Z,6.10
2022-07-27T14:24:16.793Z,6.80
2022-07-27T14:26:18.439Z,5.95
2022-07-27T14:28:20.722Z,6.05
2022-07-27T14:30:22.578Z,6.07
2022-07-27T14:32:24.270Z,5.57
2022-07-27T14:34:26.594Z,5.50
2022-07-27T14:36:28.343Z,5.80
2022-07-27T14:38:30.938Z,5.15
2022-07-27T14:40:32.855Z,5.05
2022-07-27T14:42:34.706Z,5.55
2022-07-27T14:44:36.369Z,5.88
2022-07-27T14:46:38.053Z,5.97
2022-07-27T14:49:05.109Z,5.90
2022-07-27T14:51:01.723Z,6.32
2022-07-27T14:53:04.034Z,6.00
2022-07-27T14:55:06.308Z,6.20
2022-07-27T14:57:08.358Z,6.00
2022-07-27T14:59:10.314Z,5.70
2022-07-27T15:01:12.581Z,5.33
2022-07-27T15:03:15.282Z,5.38
2022-07-27T15:05:17.164Z,5.65
2022-07-27T15:07:18.826Z,5.35
2022-07-27T15:09:20.507Z,6.13
2022-07-27T15:11:23.580Z,4.85
2022-07-27T15:13:25.653Z,5.43
2022-07-27T15:15:27.388Z,5.93
2022-07-27T15:17:29.070Z,6.03
2022-07-27T15:19:30.751Z,5.20
2022-07-27T15:21:32.443Z,5.63
2022-07-27T15:23:34.077Z,5.03
2022-07-27T15:25:35.804Z,5.40
2022-07-27T15:27:37.501Z,5.30
2022-07-27T15:29:39.219Z,4.43
2022-07-27T15:31:40.959Z,5.05
2022-07-27T15:33:42.753Z,4.30
2022-07-27T15:35:44.449Z,4.53
2022-07-27T15:37:53.553Z,4.10
2022-07-27T15:39:56.599Z,4.22
2022-07-27T15:41:58.260Z,4.53
2022-07-27T15:44:01.243Z,4.53
2022-07-27T15:46:03.019Z,4.15
2022-07-27T15:48:08.688Z,4.13
2022-07-27T15:50:10.851Z,4.40
2022-07-27T15:52:12.536Z,4.40
2022-07-27T15:54:15.427Z,4.05
2022-07-27T15:56:17.179Z,4.45
2022-07-27T15:58:19.603Z,4.63
2022-07-27T16:00:21.438Z,4.90
2022-07-27T16:02:26.469Z,4.63
2022-07-27T16:04:28.206Z,3.97
2022-07-27T16:06:34.002Z,4.30
2022-07-27T16:08:38.841Z,4.20
2022-07-27T16:10:41.800Z,4.15
2022-07-27T16:12:43.639Z,4.32
2022-07-27T16:14:48.495Z,4.78
2022-07-27T16:16:51.914Z,4.35
2022-07-27T16:18:54.569Z,4.80
2022-07-27T16:20:56.604Z,4.97
2022-07-27T16:22:58.277Z,4.90
2022-07-27T16:25:00.058Z,4.55
2022-07-27T16:27:01.910Z,5.47
2022-07-27T16:29:03.819Z,4.03
2022-07-27T16:31:06.683Z,4.10
2022-07-27T16:33:09.478Z,4.13
2022-07-27T16:35:11.113Z,4.10
2022-07-27T16:37:12.821Z,4.50
2022-07-27T16:39:14.735Z,4.43
2022-07-27T16:41:17.521Z,4.65
2022-07-27T16:43:19.249Z,4.15
2022-07-27T16:45:20.866Z,4.93
2022-07-27T16:47:22.649Z,4.35
2022-07-27T16:49:36.054Z,4.38
2022-07-27T16:51:38.754Z,5.15
2022-07-27T16:53:42.287Z,5.07
2022-07-27T16:55:44.041Z,4.38
2022-07-27T16:57:45.700Z,5.43
2022-07-27T16:59:47.329Z,4.78
2022-07-27T17:01:49.073Z,4.07
2022-07-27T17:03:51.401Z,4.40
2022-07-27T17:05:53.480Z,4.07
2022-07-27T17:07:55.158Z,3.78
2022-07-27T17:09:57.069Z,4.55
2022-07-27T17:11:58.770Z,4.47
2022-07-27T17:14:00.636Z,4.55
2022-07-27T17:16:07.046Z,5.32
2022-07-27T17:18:08.784Z,6.93
2022-07-27T17:20:10.906Z,6.38
2022-07-27T17:22:12.522Z,6.75
2022-07-27T17:24:14.187Z,6.28
2022-07-27T17:26:15.880Z,6.88
2022-07-27T17:28:17.544Z,6.85
2022-07-27T17:30:19.334Z,7.43
2022-07-27T17:32:21.060Z,8.07
2022-07-27T17:34:22.982Z,6.35
2022-07-27T17:36:26.183Z,6.43
2022-07-27T17:38:27.951Z,6.22
2022-07-27T17:40:29.724Z,7.70
2022-07-27T17:42:31.371Z,6.70
2022-07-27T17:44:34.048Z,6.25
2022-07-27T17:46:39.073Z,7.50
2022-07-27T17:48:41.079Z,6.50
2022-07-27T17:50:42.749Z,6.05
2022-07-27T17:52:45.463Z,6.00
2022-07-27T17:54:48.065Z,5.50
2022-07-27T17:56:49.766Z,6.50
2022-07-27T17:58:51.523Z,5.85
2022-07-27T18:00:53.734Z,5.32
2022-07-27T18:02:55.701Z,5.43
2022-07-27T18:04:57.441Z,6.07
2022-07-27T18:06:59.066Z,5.93
2022-07-27T18:09:00.783Z,6.03
2022-07-27T18:11:03.181Z,6.15
2022-07-27T18:13:05.878Z,5.67
2022-07-27T18:15:26.915Z,5.40
2022-07-27T18:17:28.857Z,5.40
2022-07-27T18:19:30.521Z,5.40
2022-07-27T18:21:32.357Z,5.38
2022-07-27T18:23:34.541Z,5.28
2022-07-27T18:25:36.236Z,5.60
2022-07-27T18:27:38.205Z,5.93
2022-07-27T18:29:39.958Z,6.18
2022-07-27T18:31:41.737Z,6.50
2022-07-27T18:33:47.267Z,6.95
2022-07-27T18:35:50.181Z,6.65
2022-07-27T18:37:51.829Z,5.70
2022-07-27T18:39:53.493Z,6.53
2022-07-27T18:42:01.718Z,6.07
2022-07-27T18:44:03.492Z,6.10
2022-07-27T18:46:05.693Z,5.85
2022-07-27T18:48:11.142Z,5.70
2022-07-27T18:50:12.817Z,6.57
2022-07-27T18:52:15.448Z,5.68
2022-07-27T18:54:17.106Z,6.78
2022-07-27T18:56:18.860Z,8.00
2022-07-27T18:58:21.814Z,7.70
2022-07-27T19:00:24.606Z,6.97
2022-07-27T19:02:26.444Z,6.25
2022-07-27T19:04:28.254Z,7.30
2022-07-27T19:06:30.008Z,7.47
2022-07-27T19:08:31.718Z,7.07
2022-07-27T19:10:33.332Z,6.90
2022-07-27T19:12:35.117Z,6.43
2022-07-27T19:14:37.142Z,6.05
2022-07-27T19:16:39.075Z,6.03
2022-07-27T19:18:40.799Z,6.00
2022-07-27T19:20:42.620Z,7.10
2022-07-27T19:22:47.847Z,6.60
2022-07-27T19:24:54.686Z,5.63
2022-07-27T19:26:56.706Z,6.53
2022-07-27T19:28:58.456Z,6.45
2022-07-27T19:31:00.211Z,6.35
2022-07-27T19:33:02.167Z,6.18
2022-07-27T19:35:04.078Z,6.28
2022-07-27T19:37:06.331Z,6.72
2022-07-27T19:39:09.835Z,6.78
2022-07-27T19:41:11.855Z,6.45
2022-07-27T19:43:15.044Z,6.10
2022-07-27T19:45:16.823Z,6.45
2022-07-27T19:47:18.707Z,6.22
2022-07-27T19:49:22.828Z,6.22
2022-07-27T19:51:24.621Z,6.28
2022-07-27T19:53:26.488Z,6.47
2022-07-27T19:55:28.172Z,5.82
2022-07-27T19:57:30.165Z,5.97
2022-07-27T19:59:55.698Z,5.93
2022-07-27T20:01:54.074Z,5.88
2022-07-27T20:03:56.327Z,6.35
2022-07-27T20:05:58.594Z,6.75
2022-07-27T20:08:00.441Z,7.05
2022-07-27T20:10:02.062Z,6.72
2022-07-27T20:12:04.942Z,6.38
2022-07-27T20:14:06.771Z,7.40
2022-07-27T20:16:08.407Z,7.20
2022-07-27T20:18:10.093Z,6.88
2022-07-27T20:20:12.072Z,6.78
2022-07-27T20:22:13.750Z,6.80
2022-07-27T20:24:15.457Z,6.65
2022-07-27T20:26:17.178Z,6.90
2022-07-27T20:28:18.786Z,6.90
2022-07-27T20:30:20.577Z,6.30
2022-07-27T20:32:22.376Z,6.85
2022-07-27T20:34:24.636Z,6.80
2022-07-27T20:36:26.278Z,6.88
2022-07-27T20:38:28.002Z,7.18
2022-07-27T20:40:30.602Z,6.70
2022-07-27T20:42:32.846Z,7.25
2022-07-27T20:44:34.517Z,8.15
2022-07-27T20:46:36.197Z,7.55
2022-07-27T20:48:37.876Z,7.50
2022-07-27T20:50:39.825Z,6.25
2022-07-27T20:52:43.130Z,6.90
2022-07-27T20:54:44.945Z,6.95
2022-07-27T20:56:46.641Z,7.00
2022-07-27T20:58:48.465Z,7.00
2022-07-27T21:00:50.214Z,6.70
2022-07-27T21:02:52.123Z,7.15
2022-07-27T21:04:55.016Z,7.05
2022-07-27T21:06:57.089Z,6.70
2022-07-27T21:08:58.722Z,6.57
2022-07-27T21:11:00.440Z,6.85
2022-07-27T21:13:02.065Z,6.90
2022-07-27T21:15:05.771Z,7.13
2022-07-27T21:17:10.273Z,6.68
2022-07-27T21:19:12.660Z,7.00
2022-07-27T21:21:15.043Z,7.80
2022-07-27T21:23:35.262Z,7.10
2022-07-27T21:25:44.045Z,7.22
2022-07-27T21:27:46.132Z,7.28
2022-07-27T21:29:50.019Z,7.63
2022-07-27T21:31:51.710Z,7.70
2022-07-27T21:33:53.446Z,6.25
2022-07-27T21:35:55.327Z,6.80
2022-07-27T21:37:57.006Z,6.63
2022-07-27T21:40:00.034Z,6.95
2022-07-27T21:42:02.542Z,6.28
2022-07-27T21:44:04.582Z,6.22
2022-07-27T21:46:06.599Z,5.97
2022-07-27T21:48:08.225Z,6.47
2022-07-27T21:50:11.922Z,6.27
2022-07-27T21:52:13.627Z,6.30
2022-07-27T21:54:16.467Z,5.47
2022-07-27T21:56:18.425Z,6.47
2022-07-27T21:58:20.219Z,6.07
2022-07-27T22:00:24.329Z,5.75
2022-07-27T22:02:28.356Z,6.10
2022-07-27T22:04:30.368Z,5.45
2022-07-27T22:06:32.045Z,5.32
2022-07-27T22:08:34.435Z,5.80
2022-07-27T22:10:36.076Z,5.65
2022-07-27T22:12:37.730Z,5.20
2022-07-27T22:14:39.382Z,5.20
2022-07-27T22:16:41.209Z,5.93
2022-07-27T22:18:42.882Z,5.47
2022-07-27T22:20:44.506Z,5.03
2022-07-27T22:22:46.397Z,5.22
2022-07-27T22:24:48.075Z,5.25
2022-07-27T22:26:49.784Z,5.60
2022-07-27T22:28:51.518Z,5.10
2022-07-27T22:31:15.662Z,5.40
2022-07-27T22:33:15.511Z,5.18
2022-07-27T22:35:17.334Z,5.57
2022-07-27T22:37:18.985Z,5.03
2022-07-27T22:39:20.711Z,5.10
2022-07-27T22:41:22.334Z,5.00
2022-07-27T22:43:23.995Z,5.32
2022-07-27T22:45:25.995Z,6.22
2022-07-27T22:47:27.729Z,5.45
2022-07-27T22:49:29.338Z,5.32
2022-07-27T22:51:49.519Z,5.82
2022-07-27T22:53:52.695Z,5.30
2022-07-27T22:55:54.389Z,6.07
2022-07-27T22:57:56.087Z,5.85
2022-07-27T22:59:57.777Z,5.40
2022-07-27T23:01:59.778Z,5.95
2022-07-27T23:04:01.581Z,5.25
2022-07-27T23:06:03.429Z,5.32
2022-07-27T23:08:05.392Z,5.82
2022-07-27T23:10:30.706Z,5.95
2022-07-27T23:12:32.584Z,5.60
2022-07-27T23:14:34.273Z,5.38
2022-07-27T23:16:36.188Z,5.40
2022-07-27T23:18:37.999Z,5.50
2022-07-27T23:20:39.724Z,5.60
2022-07-27T23:22:41.671Z,5.32
2022-07-27T23:24:43.754Z,6.78
2022-07-27T23:26:46.715Z,7.80
2022-07-27T23:28:48.392Z,8.43
2022-07-27T23:30:51.530Z,7.35
2022-07-27T23:32:54.657Z,6.93
2022-07-27T23:34:56.409Z,6.75
2022-07-27T23:36:58.168Z,6.65
2022-07-27T23:38:59.842Z,6.85
2022-07-27T23:41:02.306Z,7.05
2022-07-27T23:43:03.968Z,6.57
2022-07-27T23:45:06.376Z,6.13
2022-07-27T23:47:08.049Z,6.03
2022-07-27T23:49:09.765Z,6.53
2022-07-27T23:51:29.432Z,6.50
2022-07-27T23:53:31.199Z,6.57
2022-07-27T23:55:32.806Z,6.78
2022-07-27T23:57:34.479Z,6.55
2022-07-27T23:59:36.280Z,6.40
